Latest Weather Observations for Cloncurry

IDQ60801

Issued at 2:35 am EST Sunday 23 November 2014 (issued every 30 minutes, with the page automatically refreshed every 10 minutes)

About weather observations | Map of weather stations | Latest weather observations for QLD | Other Formats
Station Details ID: 029141 Name: CLONCURRY AIRPORT Lat: -20.67 Lon: 140.50 Height: 186.0 m
Data from the previous 72 hours. | See also: Recent months at Cloncurry
Date/Time
EST
Temp
°C
App
Temp
°C
Dew
Point
Rel
Hum
%
Delta-T
°C
Wind Press
QNH
hPa
Press
MSL
hPa
Rain
since 9 am
mm
Dir
 
Spd
km/h
Gust
km/h
Spd
kts
Gust
kts
23/02:30am 30.0 29.1 13.7 37 9.9 SSW 11 15 6 8 1010.0 1008.6 0.0
23/02:00am 30.5 29.6 13.7 35 10.2 SW 11 13 6 7 1010.1 1008.7 0.0
23/01:30am 31.1 30.2 13.8 34 10.5 WSW 11 13 6 7 1010.6 1009.2 0.0
23/01:00am 30.8 30.9 14.4 36 10.1 NNE 7 15 4 8 1011.1 1009.8 0.0
23/12:30am 31.4 30.7 13.2 33 11.0 SSE 9 11 5 6 1011.3 1010.0 0.0
23/12:00am 32.1 31.1 13.3 31 11.4 ESE 11 13 6 7 1011.6 1010.3 0.0
 
Date/Time
EST
Temp
°C
App
Temp
°C
Dew
Point
Rel
Hum
%
Delta-T
°C
Wind Press
QNH
hPa
Press
MSL
hPa
Rain
since 9 am
mm
Dir
 
Spd
km/h
Gust
km/h
Spd
kts
Gust
kts
22/11:30pm 32.3 29.6 13.5 32 11.4 E 20 24 11 13 1012.0 1010.7 0.0
22/11:00pm 32.7 31.6 14.3 32 11.3 S 13 17 7 9 1011.3 1010.0 0.0
22/10:30pm 32.8 31.9 14.9 34 11.1 SSW 13 20 7 11 1011.2 1009.9 0.0
22/10:00pm 32.8 33.1 14.9 34 11.1 SSW 7 11 4 6 1010.9 1009.6 0.0
22/09:30pm 33.1 33.5 14.7 33 11.4 S 6 7 3 4 1010.5 1009.1 0.0
22/09:00pm 33.4 32.5 14.9 32 11.5 SSW 13 15 7 8 1010.3 1008.9 0.0
22/08:30pm 33.8 32.5 14.8 32 11.8 SSW 15 20 8 11 1010.0 1008.6 0.0
22/08:00pm 34.5 32.3 14.4 30 12.5 SSW 19 26 10 14 1009.7 1008.3 0.0
22/07:30pm 35.2 32.5 14.5 29 12.9 SW 22 33 12 18 1009.4 1008.0 0.0
22/07:00pm 35.5 31.3 14.7 28 13.0 SW 30 39 16 21 1008.9 1007.5 0.0
22/06:39pm 36.7 32.3 12.8 24 14.6 WSW 28 41 15 22 1008.5 1007.1 0.0
22/06:30pm 38.5 37.6 13.7 23 15.4 N 11 15 6 8 1007.8 1006.5 0.0
22/06:00pm 38.7 37.4 13.8 22 15.6 N 13 17 7 9 1007.2 1005.9 0.0
22/05:30pm 38.8 37.2 13.9 22 15.6 N 15 19 8 10 1007.2 1005.9 0.0
22/05:00pm 38.9 36.0 14.0 23 15.6 N 22 32 12 17 1007.0 1005.7 0.0
22/04:30pm 39.6 37.0 13.9 22 16.1 N 20 30 11 16 1007.0 1005.7 0.0
22/04:00pm 40.0 38.6 13.5 21 16.6 NE 13 24 7 13 1007.4 1006.1 0.0
22/03:30pm 39.7 38.9 14.0 22 16.1 N 11 24 6 13 1007.8 1006.5 0.0
22/03:00pm 39.7 39.3 14.0 22 16.2 NNW 9 17 5 9 1008.3 1006.9 0.0
22/02:30pm 39.7 37.7 14.0 22 16.1 NNW 17 24 9 13 1008.8 1007.4 0.0
22/02:00pm 39.9 37.7 13.4 21 16.5 NE 17 24 9 13 1009.1 1007.7 0.0
22/01:30pm 39.7 38.1 14.0 22 16.1 W 15 26 8 14 1009.7 1008.3 0.0
22/01:00pm 38.9 38.5 14.0 23 15.6 N 9 17 5 9 1010.2 1008.8 0.0
22/12:30pm 38.3 37.1 16.0 27 14.3 N 17 24 9 13 1010.6 1009.2 0.0
22/12:00pm 37.4 36.1 15.8 27 13.8 NNE 17 24 9 13 1011.2 1009.9 0.0
22/11:30am 38.2 36.6 15.9 26 14.3 NNE 19 26 10 14 1011.3 1010.0 0.0
22/11:00am 37.2 35.6 15.1 27 14.0 NNE 17 24 9 13 1011.5 1010.2 0.0
22/10:30am 36.5 34.3 15.0 27 13.5 NNE 20 28 11 15 1011.9 1010.6 0.0
22/10:00am 36.8 36.0 14.1 25 14.1 NE 11 20 6 11 1012.0 1010.7 0.0
22/09:30am 35.4 35.0 14.1 28 13.2 WSW 9 19 5 10 1011.9 1010.6 0.0
22/09:00am 34.3 33.0 15.7 32 11.8 SW 17 22 9 12 1011.8 1010.5 0.0
22/08:30am 32.4 31.8 16.7 39 10.0 WSW 15 22 8 12 1011.8 1010.5 0.0
22/08:00am 30.4 30.2 17.5 46 8.3 SW 15 20 8 11 1011.5 1010.2 0.0
22/07:30am 28.3 29.2 19.2 57 5.9 WSW 13 17 7 9 1011.4 1010.1 0.0
22/07:00am 26.4 27.9 19.8 67 4.3 WSW 11 17 6 9 1011.0 1009.7 0.0
22/06:30am 25.6 28.0 19.7 70 3.8 W 6 7 3 4 1010.5 1009.1 0.0
22/06:00am 25.1 27.5 19.7 72 3.5 W 6 7 3 4 1010.1 1008.7 0.0
22/05:30am 24.8 27.6 19.6 73 3.4 W 4 6 2 3 1009.8 1008.4 0.0
22/05:00am 25.1 26.6 19.7 72 3.5 WNW 11 15 6 8 1009.9 1008.5 0.0
22/04:30am 25.5 26.3 19.9 71 3.7 NNW 15 20 8 11 1010.3 1008.9 0.0
22/04:00am 25.6 26.4 19.9 70 3.7 NNW 15 20 8 11 1010.4 1009.0 0.0
22/03:30am 26.0 25.7 19.6 68 4.2 NNW 20 26 11 14 1010.0 1008.6 0.0
22/03:00am 26.3 25.6 19.4 66 4.5 N 22 30 12 16 1010.4 1009.0 0.0
22/02:30am 26.7 26.5 19.8 66 4.5 N 20 30 11 16 1010.8 1009.4 0.0
22/02:00am 27.0 25.9 19.4 63 5.0 N 24 43 13 23 1010.7 1009.3 0.0
22/01:30am 27.3 25.0 19.4 62 5.1 N 30 43 16 23 1010.9 1009.6 0.0
22/01:00am 27.8 25.0 19.1 59 5.7 N 32 43 17 23 1011.4 1010.1 0.0
22/12:30am 28.2 25.8 19.1 57 5.9 N 30 43 16 23 1012.0 1010.7 0.0
22/12:00am 29.3 23.7 17.8 50 7.4 NNW 44 52 24 28 1011.4 1010.1 0.0
 
Date/Time
EST
Temp
°C
App
Temp
°C
Dew
Point
Rel
Hum
%
Delta-T
°C
Wind Press
QNH
hPa
Press
MSL
hPa
Rain
since 9 am
mm
Dir
 
Spd
km/h
Gust
km/h
Spd
kts
Gust
kts
21/11:34pm 30.7 27.7 17.7 45 8.4 NNE 30 48 16 26 1011.0 1009.7 0.0
21/11:30pm 30.5 28.3 17.9 47 8.1 NNE 26 32 14 17 1011.0 1009.7 0.0
21/11:00pm 31.0 30.0 16.6 42 9.1 NE 17 20 9 11 1010.1 1008.7 0.0
21/10:30pm 31.2 28.5 17.5 44 8.8 E 28 35 15 19 1011.0 1009.7 0.0
21/10:00pm 31.7 27.9 16.8 40 9.5 E 32 43 17 23 1011.8 1010.5 0.0
21/09:30pm 32.6 30.3 14.7 34 11.1 SE 20 30 11 16 1011.0 1009.7 0.0
21/09:00pm 32.7 32.3 16.1 37 10.5 ENE 13 22 7 12 1010.6 1009.2 0.0
21/08:30pm 33.6 33.8 14.6 31 11.8 SSW 7 9 4 5 1010.3 1008.9 0.0
21/08:00pm 33.4 32.4 14.5 32 11.7 S 13 17 7 9 1009.7 1008.3 0.0
21/07:30pm 33.4 31.4 15.4 34 11.3 SSW 20 26 11 14 1009.0 1007.6 0.0
21/07:00pm 33.7 32.9 15.2 33 11.6 NE 13 19 7 10 1008.4 1007.0 0.0
21/06:30pm 34.9 32.8 14.7 29 12.6 E 19 28 10 15 1007.5 1006.2 0.0
21/06:00pm 36.6 34.6 12.7 23 14.6 SE 15 19 8 10 1007.1 1005.8 0.0
21/05:30pm 36.9 34.0 13.0 24 14.7 E 20 24 11 13 1006.9 1005.6 0.0
21/05:00pm 34.3 29.7 14.7 30 12.2 E 32 46 17 25 1007.4 1006.1 0.0
21/04:54pm 32.4 27.1 15.4 36 10.6 E 37 46 20 25 1007.5 1006.2 0.0
21/04:36pm 32.3 26.0 16.2 38 10.2 ESE 44 63 24 34 1007.7 1006.4 0.0
21/04:30pm 31.2 23.7 16.0 40 9.5 ESE 50 67 27 36 1007.7 1006.4 0.0
21/04:21pm 31.9 26.1 15.0 36 10.5 SE 39 61 21 33 1008.0 1006.6 0.0
21/04:20pm 32.8 27.4 14.9 34 11.1 SE 37 48 20 26 1008.1 1006.7 0.0
21/04:01pm 35.8 30.6 13.3 26 13.8 SW 33 52 18 28 1007.1 1005.8 0.0
21/04:00pm 35.7 30.1 13.2 26 13.8 SW 35 52 19 28 1007.1 1005.8 0.0
21/03:56pm 37.1 30.1 12.5 23 15.0 SW 41 52 22 28 1007.0 1005.7 0.0
21/03:30pm 40.1 36.4 12.8 19 16.9 NNW 24 33 13 18 1006.2 1004.9 0.0
21/03:00pm 41.1 38.2 12.9 19 17.6 NNW 20 26 11 14 1006.2 1004.9 0.0
21/02:30pm 40.9 39.0 11.9 18 17.8 NNW 13 24 7 13 1006.8 1005.5 0.0
21/02:00pm 40.7 38.8 11.7 18 17.7 N 13 24 7 13 1007.4 1006.1 0.0
21/01:30pm 40.3 37.4 13.0 20 16.9 NW 20 28 11 15 1008.2 1006.8 0.0
21/01:00pm 40.7 37.8 14.1 21 16.8 NNW 22 41 12 22 1008.8 1007.4 0.0
21/12:30pm 41.3 38.9 13.8 20 17.3 NNW 19 35 10 19 1009.4 1008.0 0.0
21/12:09pm 41.4 36.9 15.4 22 16.7 N 33 52 18 28 1009.5 1008.1 0.0
21/12:00pm 40.3 37.6 14.5 22 16.4 N 22 32 12 17 1009.8 1008.4 0.0
21/11:30am 39.7 36.3 14.7 23 15.9 NNW 26 37 14 20 1010.3 1008.9 0.0
21/11:00am 40.2 37.1 15.7 23 15.8 N 26 39 14 21 1010.8 1009.4 0.0
21/10:30am 39.1 36.4 15.5 25 15.1 N 24 35 13 19 1010.9 1009.6 0.0
21/10:00am 38.2 35.6 15.9 26 14.3 NNW 24 37 13 20 1011.2 1009.9 0.0
21/09:30am 37.6 35.2 16.5 28 13.6 NNW 24 33 13 18 1011.4 1010.1 0.0
21/09:00am 36.5 34.0 17.1 31 12.6 NNW 26 32 14 17 1011.6 1010.3 0.0
21/08:30am 35.9 35.3 18.5 36 11.5 NNW 19 28 10 15 1011.6 1010.3 0.0
21/08:00am 34.8 35.1 19.6 40 10.1 NW 17 28 9 15 1011.3 1010.0 0.0
21/07:30am 33.2 34.8 20.7 47 8.4 NW 13 20 7 11 1011.2 1009.9 0.0
21/07:00am 31.7 33.4 20.9 52 7.3 N 13 17 7 9 1010.8 1009.4 0.0
21/06:30am 30.8 32.9 21.0 56 6.6 N 11 15 6 8 1010.4 1009.0 0.0
21/06:00am 30.2 33.1 21.0 58 6.2 NNW 7 9 4 5 1010.0 1008.6 0.0
21/05:30am 30.3 32.7 20.8 56 6.4 NW 9 13 5 7 1009.6 1008.2 0.0
21/05:00am 30.8 32.8 20.7 55 6.8 NW 11 13 6 7 1009.2 1007.8 0.0
21/04:30am 31.3 33.0 20.9 54 7.0 NNW 13 15 7 8 1009.1 1007.7 0.0
21/04:00am 31.6 33.2 20.8 52 7.3 NNW 13 17 7 9 1008.7 1007.3 0.0
21/03:30am 32.0 33.5 20.6 51 7.7 N 13 17 7 9 1008.6 1007.2 0.0
21/03:00am 32.3 33.4 20.5 49 7.9 NNW 15 20 8 11 1008.5 1007.1 0.0
21/02:30am 32.3 33.8 20.5 49 7.9 NNW 13 17 7 9 1008.5 1007.1 0.0
21/02:00am 32.6 33.7 20.5 49 8.1 NNW 15 20 8 11 1008.6 1007.2 0.0
21/01:30am 32.8 34.2 20.3 47 8.4 NNW 13 17 7 9 1008.5 1007.1 0.0
21/01:00am 33.0 34.1 20.5 47 8.4 N 15 20 8 11 1008.5 1007.1 0.0
21/12:30am 33.5 34.3 19.9 44 9.1 NNW 15 20 8 11 1008.6 1007.2 0.0
21/12:00am 34.2 33.8 19.4 41 9.8 NNW 20 26 11 14 1008.5 1007.1 0.0
 
Date/Time
EST
Temp
°C
App
Temp
°C
Dew
Point
Rel
Hum
%
Delta-T
°C
Wind Press
QNH
hPa
Press
MSL
hPa
Rain
since 9 am
mm
Dir
 
Spd
km/h
Gust
km/h
Spd
kts
Gust
kts
20/11:30pm 34.6 33.0 16.4 33 11.6 NNW 20 26 11 14 1008.5 1007.1 0.0
20/11:00pm 35.2 33.0 13.4 27 13.4 N 17 20 9 11 1008.6 1007.2 0.0
20/10:30pm 35.1 33.9 10.2 22 14.6 N 7 11 4 6 1008.3 1006.9 0.0
20/10:00pm 35.4 33.5 9.0 20 15.2 N 9 11 5 6 1008.2 1006.8 0.0
20/09:30pm 35.7 33.1 7.7 18 15.8 N 11 13 6 7 1007.8 1006.5 0.0
20/09:00pm 36.2 32.9 4.5 14 17.1 N 11 13 6 7 1007.7 1006.4 0.0
20/08:30pm 36.9 33.5 4.0 13 17.6 N 11 13 6 7 1007.4 1006.1 0.0
20/08:00pm 37.7 34.6 3.4 12 18.3 N 9 11 5 6 1007.1 1005.8 0.0
20/07:30pm 38.8 35.6 3.1 11 19.1 N 9 11 5 6 1006.8 1005.5 0.0
20/07:00pm 40.7 37.9 3.1 10 20.3 N 7 9 4 5 1006.5 1005.2 0.0
20/06:30pm 41.6 38.3 2.3 9 21.1 E 9 13 5 7 1006.3 1005.0 0.0
20/06:00pm 42.2 39.5 2.8 9 21.4 NW 6 11 3 6 1006.1 1004.8 0.0
20/05:30pm 42.4 38.4 2.9 9 21.4 SSE 13 17 7 9 1006.0 1004.7 0.0
20/05:00pm 42.5 39.6 4.5 10 21.2 WNW 9 15 5 8 1005.9 1004.5 0.0
20/04:30pm 42.4 39.5 4.4 10 21.1 S 9 19 5 10 1006.1 1004.8 0.0
20/04:00pm 42.6 39.7 4.6 10 21.2 NE 9 15 5 8 1006.3 1005.0 0.0
20/03:30pm 42.1 39.1 4.2 10 20.9 SSE 9 13 5 7 1006.7 1005.4 0.0
20/03:00pm 41.7 38.5 5.3 11 20.4 ENE 11 15 6 8 1007.0 1005.7 0.0
20/02:30pm 41.8 38.5 6.6 12 20.1 WNW 13 15 7 8 1007.6 1006.3 0.0
20/02:00pm 40.8 37.6 7.0 13 19.4 WNW 13 20 7 11 1008.2 1006.8 0.0
20/01:30pm 41.1 38.7 7.2 13 19.5 NNE 9 17 5 9 1008.7 1007.3 0.0
20/01:00pm 40.7 38.5 8.0 14 19.0 N 9 15 5 8 1009.3 1007.9 0.0
20/12:30pm 40.1 37.2 9.5 16 18.1 ESE 15 24 8 13 1009.9 1008.5 0.0
20/12:00pm 39.7 37.3 7.2 14 18.6 N 9 15 5 8 1010.5 1009.1 0.0
20/11:30am 39.4 35.5 10.7 18 17.2 NNE 22 30 12 16 1010.9 1009.6 0.0
20/11:00am 39.0 34.2 5.6 13 18.6 N 20 26 11 14 1011.2 1009.9 0.0
20/10:30am 38.8 33.5 3.1 11 19.1 N 20 30 11 16 1011.5 1010.2 0.0
20/10:00am 38.2 32.8 2.6 11 18.8 ENE 20 32 11 17 1011.8 1010.5 0.0
20/09:30am 37.0 31.5 1.7 11 18.3 NE 20 28 11 15 1011.8 1010.5 0.0
20/09:00am 36.5 30.7 2.5 12 17.8 ENE 22 30 12 16 1012.0 1010.7 0.0
20/08:30am 35.8 31.7 4.2 14 16.9 E 15 19 8 10 1011.9 1010.6 0.0
20/08:00am 32.5 32.4 12.2 29 12.1 SSW 4 7 2 4 1011.8 1010.5 0.0
20/07:30am 30.1 30.2 13.8 37 9.9 SSW 6 7 3 4 1011.7 1010.4 0.0
20/07:00am 28.2 28.2 13.7 41 8.7 S 6 9 3 5 1011.5 1010.2 0.0
20/06:30am 25.8 26.2 11.2 40 8.3 CALM 0 0 0 0 1011.3 1010.0 0.0
20/06:00am 25.5 26.3 12.7 45 7.5 CALM 0 0 0 0 1011.0 1009.7 0.0
20/05:30am 25.6 24.4 12.8 45 7.5 N 11 19 6 10 1010.6 1009.2 0.0
20/05:00am 25.6 24.0 11.4 41 8.1 S 11 13 6 7 1009.9 1008.5 0.0
20/04:30am 27.5 27.2 12.7 40 8.7 NE 6 7 3 4 1009.9 1008.5 0.0
20/04:00am 28.0 27.0 11.1 35 9.7 NE 7 11 4 6 1009.9 1008.5 0.0
20/03:30am 29.3 26.4 4.7 21 12.8 NE 9 13 5 7 1009.6 1008.2 0.0
20/03:00am 31.4 28.1 2.6 16 14.7 E 9 11 5 6 1009.4 1008.0 0.0

Other Formats:

Comma delimited format used in spreadsheet applications
http://www.bom.gov.au/fwo/IDQ60801/IDQ60801.94335.axf

JavaScript Object Notation format (JSON) in row-major order
http://www.bom.gov.au/fwo/IDQ60801/IDQ60801.94335.json